sensor_id;sensor_type;location;lat;lon;timestamp;pressure;altitude;pressure_sealevel;temperature;humidity
10135;BME280;5107;48.850;8.924;2023-06-22T00:00:51;96868.00;;;20.86;83.32
10135;BME280;5107;48.850;8.924;2023-06-22T00:03:20;96856.72;;;20.72;84.25
10135;BME280;5107;48.850;8.924;2023-06-22T00:05:47;96859.25;;;20.67;84.44
10135;BME280;5107;48.850;8.924;2023-06-22T00:08:12;96868.25;;;20.84;84.18
10135;BME280;5107;48.850;8.924;2023-06-22T00:10:38;96856.97;;;20.82;83.58
10135;BME280;5107;48.850;8.924;2023-06-22T00:13:04;96851.16;;;20.74;84.11
10135;BME280;5107;48.850;8.924;2023-06-22T00:15:29;96859.50;;;20.77;84.02
10135;BME280;5107;48.850;8.924;2023-06-22T00:17:55;96860.09;;;20.79;83.85
10135;BME280;5107;48.850;8.924;2023-06-22T00:20:22;96856.84;;;20.66;84.06
10135;BME280;5107;48.850;8.924;2023-06-22T00:22:47;96863.56;;;20.57;84.80
10135;BME280;5107;48.850;8.924;2023-06-22T00:25:13;96875.34;;;20.79;83.45
10135;BME280;5107;48.850;8.924;2023-06-22T00:27:38;96872.78;;;20.72;83.68
10135;BME280;5107;48.850;8.924;2023-06-22T00:30:04;96857.97;;;20.58;84.07
10135;BME280;5107;48.850;8.924;2023-06-22T00:32:29;96849.22;;;20.51;84.94
10135;BME280;5107;48.850;8.924;2023-06-22T00:34:55;96869.00;;;20.50;85.41
10135;BME280;5107;48.850;8.924;2023-06-22T00:37:20;96884.47;;;20.60;84.78
10135;BME280;5107;48.850;8.924;2023-06-22T00:39:51;96883.91;;;20.58;84.41
10135;BME280;5107;48.850;8.924;2023-06-22T00:42:17;96871.31;;;20.47;85.22
10135;BME280;5107;48.850;8.924;2023-06-22T00:44:42;96888.88;;;20.54;85.44
10135;BME280;5107;48.850;8.924;2023-06-22T00:47:09;96920.44;;;20.64;84.86
10135;BME280;5107;48.850;8.924;2023-06-22T00:49:34;96940.09;;;20.69;84.46
10135;BME280;5107;48.850;8.924;2023-06-22T00:52:00;96960.34;;;20.65;84.86
10135;BME280;5107;48.850;8.924;2023-06-22T00:54:25;96958.00;;;20.69;84.62
10135;BME280;5107;48.850;8.924;2023-06-22T00:56:53;96946.59;;;20.62;84.80
10135;BME280;5107;48.850;8.924;2023-06-22T00:59:21;96927.38;;;20.53;85.41
10135;BME280;5107;48.850;8.924;2023-06-22T01:01:47;96919.06;;;20.43;85.92
10135;BME280;5107;48.850;8.924;2023-06-22T01:04:12;96909.56;;;20.29;86.75
10135;BME280;5107;48.850;8.924;2023-06-22T01:09:35;96893.25;;;20.19;87.56
10135;BME280;5107;48.850;8.924;2023-06-22T01:12:06;96887.63;;;20.08;87.90
10135;BME280;5107;48.850;8.924;2023-06-22T01:14:42;96892.00;;;20.03;87.87
10135;BME280;5107;48.850;8.924;2023-06-22T01:17:09;96896.53;;;20.02;87.94
10135;BME280;5107;48.850;8.924;2023-06-22T01:19:49;96891.06;;;19.97;88.26
10135;BME280;5107;48.850;8.924;2023-06-22T01:22:23;96880.06;;;20.05;87.73
10135;BME280;5107;48.850;8.924;2023-06-22T01:30:02;96880.25;;;20.22;86.58
10135;BME280;5107;48.850;8.924;2023-06-22T01:32:33;96875.31;;;20.07;87.13
10135;BME280;5107;48.850;8.924;2023-06-22T01:35:01;96887.72;;;20.02;87.47
10135;BME280;5107;48.850;8.924;2023-06-22T01:37:29;96883.34;;;19.89;88.18
10135;BME280;5107;48.850;8.924;2023-06-22T01:39:57;96884.09;;;19.78;88.64
10135;BME280;5107;48.850;8.924;2023-06-22T01:42:24;96880.31;;;19.67;89.09
10135;BME280;5107;48.850;8.924;2023-06-22T01:44:51;96887.19;;;19.75;88.85
10135;BME280;5107;48.850;8.924;2023-06-22T01:47:17;96888.47;;;19.73;88.65
10135;BME280;5107;48.850;8.924;2023-06-22T01:49:43;96888.19;;;19.62;89.05
10135;BME280;5107;48.850;8.924;2023-06-22T01:52:09;96885.81;;;19.54;89.33
10135;BME280;5107;48.850;8.924;2023-06-22T01:54:34;96892.38;;;19.52;90.12
10135;BME280;5107;48.850;8.924;2023-06-22T01:56:59;96888.00;;;19.39;90.25
10135;BME280;5107;48.850;8.924;2023-06-22T02:02:10;96907.69;;;19.63;89.66
10135;BME280;5107;48.850;8.924;2023-06-22T02:05:01;96903.69;;;19.72;88.49
10135;BME280;5107;48.850;8.924;2023-06-22T02:07:42;96889.44;;;19.60;88.48
10135;BME280;5107;48.850;8.924;2023-06-22T02:10:09;96899.84;;;19.50;89.04
10135;BME280;5107;48.850;8.924;2023-06-22T02:12:39;96907.97;;;19.55;89.33
10135;BME280;5107;48.850;8.924;2023-06-22T02:15:07;96905.91;;;19.75;88.26
10135;BME280;5107;48.850;8.924;2023-06-22T02:17:33;96897.09;;;19.75;88.56
10135;BME280;5107;48.850;8.924;2023-06-22T02:19:58;96899.59;;;19.69;88.50
10135;BME280;5107;48.850;8.924;2023-06-22T02:22:24;96899.28;;;19.59;88.94
10135;BME280;5107;48.850;8.924;2023-06-22T02:24:49;96888.81;;;19.40;89.24
10135;BME280;5107;48.850;8.924;2023-06-22T02:27:15;96872.78;;;19.40;89.78
10135;BME280;5107;48.850;8.924;2023-06-22T02:29:40;96877.53;;;19.38;90.05
10135;BME280;5107;48.850;8.924;2023-06-22T02:32:06;96875.88;;;19.37;90.70
10135;BME280;5107;48.850;8.924;2023-06-22T02:34:31;96875.19;;;19.48;89.97
10135;BME280;5107;48.850;8.924;2023-06-22T02:36:59;96873.59;;;19.40;90.27
10135;BME280;5107;48.850;8.924;2023-06-22T02:39:26;96865.41;;;19.17;89.97
10135;BME280;5107;48.850;8.924;2023-06-22T02:41:53;96862.38;;;19.13;90.23
10135;BME280;5107;48.850;8.924;2023-06-22T02:44:18;96862.19;;;19.08;89.57
10135;BME280;5107;48.850;8.924;2023-06-22T02:46:45;96879.09;;;19.02;90.50
10135;BME280;5107;48.850;8.924;2023-06-22T02:49:11;96878.47;;;19.00;90.91
10135;BME280;5107;48.850;8.924;2023-06-22T02:51:38;96868.16;;;18.85;91.73
10135;BME280;5107;48.850;8.924;2023-06-22T02:54:05;96867.44;;;18.72;92.32
10135;BME280;5107;48.850;8.924;2023-06-22T02:56:30;96874.50;;;19.09;90.21
10135;BME280;5107;48.850;8.924;2023-06-22T02:58:56;96877.44;;;19.01;89.80
10135;BME280;5107;48.850;8.924;2023-06-22T03:01:29;96869.34;;;19.14;89.96
10135;BME280;5107;48.850;8.924;2023-06-22T03:03:56;96879.19;;;19.14;89.86
10135;BME280;5107;48.850;8.924;2023-06-22T03:06:21;96869.16;;;19.09;90.60
10135;BME280;5107;48.850;8.924;2023-06-22T03:08:48;96862.06;;;19.03;90.73
10135;BME280;5107;48.850;8.924;2023-06-22T03:11:13;96869.16;;;18.91;91.35
10135;BME280;5107;48.850;8.924;2023-06-22T03:13:39;96859.28;;;18.91;92.14
10135;BME280;5107;48.850;8.924;2023-06-22T03:16:04;96854.75;;;18.92;92.28
10135;BME280;5107;48.850;8.924;2023-06-22T03:18:29;96856.59;;;18.91;92.43
10135;BME280;5107;48.850;8.924;2023-06-22T03:20:55;96845.78;;;18.86;92.15
10135;BME280;5107;48.850;8.924;2023-06-22T03:23:20;96844.59;;;18.82;92.66
10135;BME280;5107;48.850;8.924;2023-06-22T03:25:45;96857.13;;;18.82;92.19
10135;BME280;5107;48.850;8.924;2023-06-22T03:28:10;96853.84;;;18.80;91.76
10135;BME280;5107;48.850;8.924;2023-06-22T03:30:36;96846.00;;;18.85;91.94
10135;BME280;5107;48.850;8.924;2023-06-22T03:33:01;96843.94;;;18.87;91.44
10135;BME280;5107;48.850;8.924;2023-06-22T03:35:27;96850.91;;;18.88;91.27
10135;BME280;5107;48.850;8.924;2023-06-22T03:37:52;96844.34;;;18.84;91.23
10135;BME280;5107;48.850;8.924;2023-06-22T03:40:18;96841.69;;;18.84;91.50
10135;BME280;5107;48.850;8.924;2023-06-22T03:42:43;96846.00;;;18.85;92.00
10135;BME280;5107;48.850;8.924;2023-06-22T03:45:09;96840.31;;;18.81;92.17
10135;BME280;5107;48.850;8.924;2023-06-22T03:47:34;96841.13;;;18.82;92.33
10135;BME280;5107;48.850;8.924;2023-06-22T03:50:00;96845.41;;;18.83;92.71
10135;BME280;5107;48.850;8.924;2023-06-22T03:52:25;96834.69;;;18.89;92.81
10135;BME280;5107;48.850;8.924;2023-06-22T03:54:50;96837.22;;;19.03;92.43
10135;BME280;5107;48.850;8.924;2023-06-22T03:57:16;96842.06;;;19.12;91.39
10135;BME280;5107;48.850;8.924;2023-06-22T03:59:41;96833.97;;;19.19;91.65
10135;BME280;5107;48.850;8.924;2023-06-22T04:02:06;96842.44;;;19.34;91.37
10135;BME280;5107;48.850;8.924;2023-06-22T04:04:32;96845.97;;;19.53;89.92
10135;BME280;5107;48.850;8.924;2023-06-22T04:06:58;96840.84;;;19.69;89.62
10135;BME280;5107;48.850;8.924;2023-06-22T04:09:24;96842.88;;;20.04;87.65
10135;BME280;5107;48.850;8.924;2023-06-22T04:11:49;96837.41;;;20.29;87.09
10135;BME280;5107;48.850;8.924;2023-06-22T04:14:14;96826.44;;;20.60;86.45
10135;BME280;5107;48.850;8.924;2023-06-22T04:16:40;96830.81;;;20.96;83.67
10135;BME280;5107;48.850;8.924;2023-06-22T04:19:05;96821.63;;;21.27;82.26
10135;BME280;5107;48.850;8.924;2023-06-22T04:21:31;96829.09;;;21.77;78.13
10135;BME280;5107;48.850;8.924;2023-06-22T04:23:56;96830.31;;;22.09;77.07
10135;BME280;5107;48.850;8.924;2023-06-22T04:26:21;96826.41;;;22.45;76.31
10135;BME280;5107;48.850;8.924;2023-06-22T04:28:47;96821.41;;;22.82;74.31
10135;BME280;5107;48.850;8.924;2023-06-22T04:31:21;96816.09;;;23.21;70.65
10135;BME280;5107;48.850;8.924;2023-06-22T04:33:46;96813.53;;;23.31;69.99
10135;BME280;5107;48.850;8.924;2023-06-22T04:36:11;96806.13;;;23.38;69.85
10135;BME280;5107;48.850;8.924;2023-06-22T04:38:40;96809.59;;;23.55;69.55
10135;BME280;5107;48.850;8.924;2023-06-22T04:41:05;96811.94;;;23.68;68.94
10135;BME280;5107;48.850;8.924;2023-06-22T04:43:31;96815.84;;;23.82;68.48
10135;BME280;5107;48.850;8.924;2023-06-22T04:45:57;96806.41;;;24.02;67.55
10135;BME280;5107;48.850;8.924;2023-06-22T04:48:31;96809.78;;;24.19;67.20
10135;BME280;5107;48.850;8.924;2023-06-22T04:51:01;96803.38;;;24.47;65.13
10135;BME280;5107;48.850;8.924;2023-06-22T04:53:29;96801.09;;;24.34;65.37
10135;BME280;5107;48.850;8.924;2023-06-22T04:55:55;96798.75;;;24.15;66.25
10135;BME280;5107;48.850;8.924;2023-06-22T04:58:20;96798.16;;;24.35;66.21
10135;BME280;5107;48.850;8.924;2023-06-22T05:00:47;96800.22;;;24.55;65.37
10135;BME280;5107;48.850;8.924;2023-06-22T05:03:12;96802.69;;;24.62;64.75
10135;BME280;5107;48.850;8.924;2023-06-22T05:05:37;96792.34;;;24.80;64.21
10135;BME280;5107;48.850;8.924;2023-06-22T05:08:03;96798.16;;;24.99;64.14
10135;BME280;5107;48.850;8.924;2023-06-22T05:10:32;96799.00;;;25.00;63.81
10135;BME280;5107;48.850;8.924;2023-06-22T05:12:57;96790.16;;;25.09;63.02
10135;BME280;5107;48.850;8.924;2023-06-22T05:15:23;96801.63;;;25.37;62.91
10135;BME280;5107;48.850;8.924;2023-06-22T05:17:51;96792.97;;;25.87;60.23
10135;BME280;5107;48.850;8.924;2023-06-22T05:20:17;96801.97;;;26.23;58.45
10135;BME280;5107;48.850;8.924;2023-06-22T05:22:43;96788.47;;;26.13;59.49
10135;BME280;5107;48.850;8.924;2023-06-22T05:25:09;96787.38;;;26.14;59.42
10135;BME280;5107;48.850;8.924;2023-06-22T05:27:36;96782.94;;;25.67;60.70
10135;BME280;5107;48.850;8.924;2023-06-22T05:30:09;96769.97;;;25.64;61.47
10135;BME280;5107;48.850;8.924;2023-06-22T05:32:35;96780.22;;;25.62;61.48
10135;BME280;5107;48.850;8.924;2023-06-22T05:35:02;96778.41;;;25.25;62.54
10135;BME280;5107;48.850;8.924;2023-06-22T05:37:28;96780.47;;;25.13;62.97
10135;BME280;5107;48.850;8.924;2023-06-22T05:39:54;96776.41;;;24.74;64.00
10135;BME280;5107;48.850;8.924;2023-06-22T05:42:20;96782.44;;;24.54;65.09
10135;BME280;5107;48.850;8.924;2023-06-22T05:44:46;96786.69;;;24.77;64.81
10135;BME280;5107;48.850;8.924;2023-06-22T05:47:12;96780.63;;;24.60;65.14
10135;BME280;5107;48.850;8.924;2023-06-22T05:49:37;96776.84;;;24.92;63.84
10135;BME280;5107;48.850;8.924;2023-06-22T05:52:03;96777.03;;;25.18;63.11
10135;BME280;5107;48.850;8.924;2023-06-22T05:54:28;96779.19;;;25.78;61.99
10135;BME280;5107;48.850;8.924;2023-06-22T05:56:54;96772.72;;;25.69;61.85
10135;BME280;5107;48.850;8.924;2023-06-22T05:59:19;96777.63;;;25.92;60.69
10135;BME280;5107;48.850;8.924;2023-06-22T06:01:45;96780.50;;;25.60;61.28
10135;BME280;5107;48.850;8.924;2023-06-22T06:04:15;96777.91;;;25.96;60.66
10135;BME280;5107;48.850;8.924;2023-06-22T06:06:40;96779.00;;;26.05;60.47
10135;BME280;5107;48.850;8.924;2023-06-22T06:09:06;96784.75;;;26.29;59.09
10135;BME280;5107;48.850;8.924;2023-06-22T06:11:32;96788.28;;;26.39;59.44
10135;BME280;5107;48.850;8.924;2023-06-22T06:13:58;96785.06;;;26.68;58.69
10135;BME280;5107;48.850;8.924;2023-06-22T06:16:23;96774.78;;;26.80;57.56
10135;BME280;5107;48.850;8.924;2023-06-22T06:18:48;96775.06;;;26.28;59.30
10135;BME280;5107;48.850;8.924;2023-06-22T06:21:15;96771.91;;;25.74;61.10
10135;BME280;5107;48.850;8.924;2023-06-22T06:23:41;96774.69;;;25.94;61.50
10135;BME280;5107;48.850;8.924;2023-06-22T06:26:07;96773.41;;;26.37;61.32
10135;BME280;5107;48.850;8.924;2023-06-22T06:28:33;96769.25;;;25.89;61.16
10135;BME280;5107;48.850;8.924;2023-06-22T06:30:58;96770.88;;;25.95;60.35
10135;BME280;5107;48.850;8.924;2023-06-22T06:33:24;96781.53;;;26.42;59.72
10135;BME280;5107;48.850;8.924;2023-06-22T06:35:49;96780.19;;;26.44;58.99
10135;BME280;5107;48.850;8.924;2023-06-22T06:38:15;96775.59;;;26.65;59.15
10135;BME280;5107;48.850;8.924;2023-06-22T06:40:40;96777.75;;;26.83;57.96
10135;BME280;5107;48.850;8.924;2023-06-22T06:43:06;96782.34;;;26.73;58.25
10135;BME280;5107;48.850;8.924;2023-06-22T06:45:31;96778.59;;;26.94;57.47
10135;BME280;5107;48.850;8.924;2023-06-22T06:47:58;96781.00;;;27.06;57.33
10135;BME280;5107;48.850;8.924;2023-06-22T06:50:23;96776.56;;;27.45;54.86
10135;BME280;5107;48.850;8.924;2023-06-22T06:52:49;96770.06;;;27.46;55.39
10135;BME280;5107;48.850;8.924;2023-06-22T06:55:15;96766.03;;;27.44;54.99
10135;BME280;5107;48.850;8.924;2023-06-22T06:57:42;96766.28;;;27.47;55.55
10135;BME280;5107;48.850;8.924;2023-06-22T07:00:09;96765.00;;;27.30;54.93
10135;BME280;5107;48.850;8.924;2023-06-22T07:02:38;96755.19;;;27.54;54.12
10135;BME280;5107;48.850;8.924;2023-06-22T07:05:04;96760.38;;;27.40;55.45
10135;BME280;5107;48.850;8.924;2023-06-22T07:07:30;96758.19;;;27.52;54.67
10135;BME280;5107;48.850;8.924;2023-06-22T07:09:55;96744.97;;;27.41;54.19
10135;BME280;5107;48.850;8.924;2023-06-22T07:12:21;96745.81;;;27.21;56.73
10135;BME280;5107;48.850;8.924;2023-06-22T07:14:46;96737.31;;;27.63;56.20
10135;BME280;5107;48.850;8.924;2023-06-22T07:17:11;96746.22;;;27.69;54.38
10135;BME280;5107;48.850;8.924;2023-06-22T07:19:37;96739.25;;;27.52;54.18
10135;BME280;5107;48.850;8.924;2023-06-22T07:22:04;96733.28;;;27.50;54.42
10135;BME280;5107;48.850;8.924;2023-06-22T07:24:29;96737.72;;;27.26;55.05
10135;BME280;5107;48.850;8.924;2023-06-22T07:26:54;96733.44;;;27.10;54.65
10135;BME280;5107;48.850;8.924;2023-06-22T07:29:20;96717.72;;;27.12;55.50
10135;BME280;5107;48.850;8.924;2023-06-22T07:31:46;96721.47;;;27.36;54.68
10135;BME280;5107;48.850;8.924;2023-06-22T07:34:12;96719.38;;;27.82;54.35
10135;BME280;5107;48.850;8.924;2023-06-22T07:36:38;96716.47;;;27.69;54.65
10135;BME280;5107;48.850;8.924;2023-06-22T07:39:03;96715.00;;;27.91;52.88
10135;BME280;5107;48.850;8.924;2023-06-22T07:41:29;96709.53;;;27.97;52.68
10135;BME280;5107;48.850;8.924;2023-06-22T07:43:55;96715.94;;;28.16;53.57
10135;BME280;5107;48.850;8.924;2023-06-22T07:46:20;96709.66;;;28.25;52.78
10135;BME280;5107;48.850;8.924;2023-06-22T07:48:45;96713.69;;;28.62;52.43
10135;BME280;5107;48.850;8.924;2023-06-22T07:51:11;96714.03;;;28.50;50.81
10135;BME280;5107;48.850;8.924;2023-06-22T07:53:43;96721.00;;;28.27;52.34
10135;BME280;5107;48.850;8.924;2023-06-22T07:56:12;96724.72;;;28.37;51.80
10135;BME280;5107;48.850;8.924;2023-06-22T07:58:38;96724.25;;;28.92;50.83
10135;BME280;5107;48.850;8.924;2023-06-22T08:01:04;96730.84;;;29.10;50.24
10135;BME280;5107;48.850;8.924;2023-06-22T08:03:29;96729.22;;;29.09;50.90
10135;BME280;5107;48.850;8.924;2023-06-22T08:05:55;96736.56;;;29.37;49.88
10135;BME280;5107;48.850;8.924;2023-06-22T08:08:20;96739.25;;;29.37;49.58
10135;BME280;5107;48.850;8.924;2023-06-22T08:10:46;96755.06;;;29.54;49.50
10135;BME280;5107;48.850;8.924;2023-06-22T08:13:11;96752.13;;;29.22;48.73
10135;BME280;5107;48.850;8.924;2023-06-22T08:15:36;96739.78;;;28.82;49.65
10135;BME280;5107;48.850;8.924;2023-06-22T08:18:02;96746.94;;;29.01;51.42
10135;BME280;5107;48.850;8.924;2023-06-22T08:20:27;96740.97;;;28.99;49.96
10135;BME280;5107;48.850;8.924;2023-06-22T08:22:54;96738.38;;;29.13;50.46
10135;BME280;5107;48.850;8.924;2023-06-22T08:25:20;96738.16;;;28.86;50.16
10135;BME280;5107;48.850;8.924;2023-06-22T08:27:46;96740.50;;;28.92;51.22
10135;BME280;5107;48.850;8.924;2023-06-22T08:30:14;96742.34;;;28.34;51.46
10135;BME280;5107;48.850;8.924;2023-06-22T08:32:39;96751.59;;;27.74;53.14
10135;BME280;5107;48.850;8.924;2023-06-22T08:35:05;96748.50;;;27.36;53.53
10135;BME280;5107;48.850;8.924;2023-06-22T08:37:33;96749.66;;;27.00;54.94
10135;BME280;5107;48.850;8.924;2023-06-22T08:40:02;96744.81;;;26.97;55.22
10135;BME280;5107;48.850;8.924;2023-06-22T08:42:30;96742.66;;;26.68;55.59
10135;BME280;5107;48.850;8.924;2023-06-22T08:44:56;96754.53;;;26.57;56.79
10135;BME280;5107;48.850;8.924;2023-06-22T08:47:22;96738.06;;;26.38;57.53
10135;BME280;5107;48.850;8.924;2023-06-22T08:49:48;96728.63;;;26.51;56.47
10135;BME280;5107;48.850;8.924;2023-06-22T08:52:15;96752.13;;;26.51;56.68
10135;BME280;5107;48.850;8.924;2023-06-22T08:54:40;96789.06;;;26.30;56.43
10135;BME280;5107;48.850;8.924;2023-06-22T08:57:06;96807.66;;;26.16;58.19
10135;BME280;5107;48.850;8.924;2023-06-22T08:59:31;96785.56;;;26.39;57.10
10135;BME280;5107;48.850;8.924;2023-06-22T09:01:57;96790.44;;;26.37;57.17
10135;BME280;5107;48.850;8.924;2023-06-22T09:04:22;96751.28;;;26.80;55.86
10135;BME280;5107;48.850;8.924;2023-06-22T09:06:48;96737.31;;;27.63;53.43
10135;BME280;5107;48.850;8.924;2023-06-22T09:09:15;96725.75;;;28.41;51.28
10135;BME280;5107;48.850;8.924;2023-06-22T09:11:41;96726.28;;;29.29;50.01
10135;BME280;5107;48.850;8.924;2023-06-22T09:14:06;96719.06;;;28.96;49.85
10135;BME280;5107;48.850;8.924;2023-06-22T09:16:32;96707.41;;;28.66;50.54
10135;BME280;5107;48.850;8.924;2023-06-22T09:18:57;96709.66;;;28.25;50.44
10135;BME280;5107;48.850;8.924;2023-06-22T09:21:23;96698.16;;;28.00;51.40
10135;BME280;5107;48.850;8.924;2023-06-22T09:23:48;96694.91;;;27.98;51.73
10135;BME280;5107;48.850;8.924;2023-06-22T09:26:19;96682.78;;;27.90;52.27
10135;BME280;5107;48.850;8.924;2023-06-22T09:28:45;96680.78;;;28.06;52.14
10135;BME280;5107;48.850;8.924;2023-06-22T09:31:10;96682.06;;;28.13;52.11
10135;BME280;5107;48.850;8.924;2023-06-22T09:33:36;96688.31;;;28.48;51.35
10135;BME280;5107;48.850;8.924;2023-06-22T09:36:04;96701.91;;;28.77;50.47
10135;BME280;5107;48.850;8.924;2023-06-22T09:38:34;96682.97;;;29.48;49.38
10135;BME280;5107;48.850;8.924;2023-06-22T09:41:00;96684.84;;;29.24;49.26
10135;BME280;5107;48.850;8.924;2023-06-22T09:43:25;96668.69;;;29.61;48.88
10135;BME280;5107;48.850;8.924;2023-06-22T09:45:50;96670.84;;;30.02;49.35
10135;BME280;5107;48.850;8.924;2023-06-22T09:48:16;96665.84;;;30.09;47.04
10135;BME280;5107;48.850;8.924;2023-06-22T09:50:41;96680.28;;;30.23;47.60
10135;BME280;5107;48.850;8.924;2023-06-22T09:53:06;96680.75;;;30.63;47.01
10135;BME280;5107;48.850;8.924;2023-06-22T09:55:32;96685.50;;;30.71;47.44
10135;BME280;5107;48.850;8.924;2023-06-22T09:57:57;96684.56;;;31.21;44.25
10135;BME280;5107;48.850;8.924;2023-06-22T10:00:22;96679.00;;;31.67;44.90
10135;BME280;5107;48.850;8.924;2023-06-22T10:02:48;96677.41;;;31.89;44.22
10135;BME280;5107;48.850;8.924;2023-06-22T10:05:13;96667.91;;;31.64;44.08
10135;BME280;5107;48.850;8.924;2023-06-22T10:07:39;96661.66;;;31.22;44.80
10135;BME280;5107;48.850;8.924;2023-06-22T10:10:08;96653.41;;;31.14;45.36
10135;BME280;5107;48.850;8.924;2023-06-22T10:12:33;96652.06;;;31.39;44.19
10135;BME280;5107;48.850;8.924;2023-06-22T10:14:59;96659.72;;;31.64;45.23
10135;BME280;5107;48.850;8.924;2023-06-22T10:17:24;96652.94;;;31.75;45.41
10135;BME280;5107;48.850;8.924;2023-06-22T10:19:49;96646.75;;;31.97;43.91
10135;BME280;5107;48.850;8.924;2023-06-22T10:22:14;96648.91;;;31.86;45.14
10135;BME280;5107;48.850;8.924;2023-06-22T10:24:40;96647.19;;;31.77;44.27
10135;BME280;5107;48.850;8.924;2023-06-22T10:27:12;96639.19;;;31.44;43.88
10135;BME280;5107;48.850;8.924;2023-06-22T10:29:38;96631.91;;;31.40;43.94
10135;BME280;5107;48.850;8.924;2023-06-22T10:32:04;96630.59;;;31.51;44.79
10135;BME280;5107;48.850;8.924;2023-06-22T10:34:30;96639.38;;;31.48;44.76
10135;BME280;5107;48.850;8.924;2023-06-22T10:36:55;96639.47;;;31.70;44.29
10135;BME280;5107;48.850;8.924;2023-06-22T10:39:20;96632.25;;;31.88;43.77
10135;BME280;5107;48.850;8.924;2023-06-22T10:41:46;96632.38;;;31.55;43.97
10135;BME280;5107;48.850;8.924;2023-06-22T10:44:11;96634.44;;;31.63;44.42
10135;BME280;5107;48.850;8.924;2023-06-22T10:46:38;96631.44;;;31.87;44.63
10135;BME280;5107;48.850;8.924;2023-06-22T10:49:03;96622.63;;;31.90;44.17
10135;BME280;5107;48.850;8.924;2023-06-22T10:51:29;96620.03;;;32.08;44.11
10135;BME280;5107;48.850;8.924;2023-06-22T10:53:56;96631.31;;;32.59;43.30
10135;BME280;5107;48.850;8.924;2023-06-22T10:56:21;96623.38;;;32.71;42.55
10135;BME280;5107;48.850;8.924;2023-06-22T10:58:46;96631.81;;;32.39;42.49
10135;BME280;5107;48.850;8.924;2023-06-22T11:01:12;96622.66;;;32.66;41.92
10135;BME280;5107;48.850;8.924;2023-06-22T11:03:37;96621.91;;;33.05;41.15
10135;BME280;5107;48.850;8.924;2023-06-22T11:06:02;96626.59;;;33.13;40.52
10135;BME280;5107;48.850;8.924;2023-06-22T11:08:28;96618.44;;;32.82;41.17
10135;BME280;5107;48.850;8.924;2023-06-22T11:10:53;96624.66;;;33.13;41.38
10135;BME280;5107;48.850;8.924;2023-06-22T11:13:18;96630.03;;;33.27;41.25
10135;BME280;5107;48.850;8.924;2023-06-22T11:15:44;96631.56;;;33.20;42.18
10135;BME280;5107;48.850;8.924;2023-06-22T11:18:09;96639.09;;;33.05;41.93
10135;BME280;5107;48.850;8.924;2023-06-22T11:20:35;96631.91;;;32.56;41.54
10135;BME280;5107;48.850;8.924;2023-06-22T11:23:06;96619.25;;;32.52;42.16
10135;BME280;5107;48.850;8.924;2023-06-22T11:25:33;96621.56;;;32.36;43.40
10135;BME280;5107;48.850;8.924;2023-06-22T11:28:04;96623.06;;;32.20;43.87
10135;BME280;5107;48.850;8.924;2023-06-22T11:30:30;96620.28;;;31.97;44.10
10135;BME280;5107;48.850;8.924;2023-06-22T11:32:58;96615.88;;;31.65;45.16
10135;BME280;5107;48.850;8.924;2023-06-22T11:35:24;96599.72;;;31.55;45.63
10135;BME280;5107;48.850;8.924;2023-06-22T11:37:49;96597.84;;;31.42;46.33
10135;BME280;5107;48.850;8.924;2023-06-22T11:40:14;96587.69;;;31.34;46.29
10135;BME280;5107;48.850;8.924;2023-06-22T11:42:40;96585.19;;;31.24;45.78
10135;BME280;5107;48.850;8.924;2023-06-22T11:45:06;96597.09;;;31.28;46.15
10135;BME280;5107;48.850;8.924;2023-06-22T11:47:32;96588.63;;;31.29;46.53
10135;BME280;5107;48.850;8.924;2023-06-22T11:49:57;96587.72;;;31.20;46.21
10135;BME280;5107;48.850;8.924;2023-06-22T11:52:22;96593.38;;;31.10;46.76
10135;BME280;5107;48.850;8.924;2023-06-22T11:54:47;96600.22;;;30.94;47.05
10135;BME280;5107;48.850;8.924;2023-06-22T11:57:13;96603.53;;;30.77;47.05
10135;BME280;5107;48.850;8.924;2023-06-22T11:59:38;96612.06;;;30.57;47.33
10135;BME280;5107;48.850;8.924;2023-06-22T12:02:03;96617.06;;;30.50;47.79
10135;BME280;5107;48.850;8.924;2023-06-22T12:04:31;96633.63;;;30.53;47.70
10135;BME280;5107;48.850;8.924;2023-06-22T12:06:56;96641.97;;;30.57;47.47
10135;BME280;5107;48.850;8.924;2023-06-22T12:09:21;96641.81;;;30.48;48.10
10135;BME280;5107;48.850;8.924;2023-06-22T12:11:47;96644.16;;;30.55;48.48
10135;BME280;5107;48.850;8.924;2023-06-22T12:14:12;96647.91;;;30.59;48.01
10135;BME280;5107;48.850;8.924;2023-06-22T12:16:38;96640.47;;;30.65;47.49
10135;BME280;5107;48.850;8.924;2023-06-22T12:19:03;96636.75;;;30.74;47.59
10135;BME280;5107;48.850;8.924;2023-06-22T12:21:29;96635.75;;;30.84;47.56
10135;BME280;5107;48.850;8.924;2023-06-22T12:23:54;96628.63;;;30.88;47.79
10135;BME280;5107;48.850;8.924;2023-06-22T12:26:19;96623.06;;;30.93;47.44
10135;BME280;5107;48.850;8.924;2023-06-22T12:28:44;96615.50;;;30.90;46.51
10135;BME280;5107;48.850;8.924;2023-06-22T12:31:10;96612.38;;;30.83;46.51
10135;BME280;5107;48.850;8.924;2023-06-22T12:33:35;96606.34;;;30.72;47.06
10135;BME280;5107;48.850;8.924;2023-06-22T12:36:01;96617.03;;;30.69;47.50
10135;BME280;5107;48.850;8.924;2023-06-22T12:38:26;96627.28;;;30.72;47.03
10135;BME280;5107;48.850;8.924;2023-06-22T12:40:51;96619.75;;;30.82;47.08
10135;BME280;5107;48.850;8.924;2023-06-22T12:43:17;96619.06;;;31.04;47.44
10135;BME280;5107;48.850;8.924;2023-06-22T12:45:43;96632.97;;;31.16;47.48
10135;BME280;5107;48.850;8.924;2023-06-22T12:48:08;96630.31;;;31.39;47.41
10135;BME280;5107;48.850;8.924;2023-06-22T12:50:34;96628.28;;;31.72;46.56
10135;BME280;5107;48.850;8.924;2023-06-22T12:52:59;96624.75;;;31.93;46.04
10135;BME280;5107;48.850;8.924;2023-06-22T12:55:27;96620.56;;;32.10;47.52
10135;BME280;5107;48.850;8.924;2023-06-22T12:57:52;96615.78;;;32.15;46.29
10135;BME280;5107;48.850;8.924;2023-06-22T13:00:17;96615.50;;;32.17;46.33
10135;BME280;5107;48.850;8.924;2023-06-22T13:02:43;96625.28;;;32.18;44.45
10135;BME280;5107;48.850;8.924;2023-06-22T13:05:08;96608.03;;;32.09;45.19
10135;BME280;5107;48.850;8.924;2023-06-22T13:07:34;96608.66;;;31.83;46.66
10135;BME280;5107;48.850;8.924;2023-06-22T13:09:59;96615.41;;;31.63;46.40
10135;BME280;5107;48.850;8.924;2023-06-22T13:12:24;96614.16;;;31.56;45.98
10135;BME280;5107;48.850;8.924;2023-06-22T13:14:50;96625.50;;;31.36;47.15